sensor_id;sensor_type;location;lat;lon;timestamp;temperature;humidity
37658;DHT22;23500;53.268;8.308;2022-09-11T00:00:45;20.20;69.60
37658;DHT22;23500;53.268;8.308;2022-09-11T00:03:11;20.10;69.70
37658;DHT22;23500;53.268;8.308;2022-09-11T00:05:41;20.10;69.80
37658;DHT22;23500;53.268;8.308;2022-09-11T00:08:09;20.10;69.80
37658;DHT22;23500;53.268;8.308;2022-09-11T00:10:38;20.10;70.00
37658;DHT22;23500;53.268;8.308;2022-09-11T00:13:12;20.10;70.00
37658;DHT22;23500;53.268;8.308;2022-09-11T00:15:43;20.10;69.90
37658;DHT22;23500;53.268;8.308;2022-09-11T00:18:12;20.10;70.10
37658;DHT22;23500;53.268;8.308;2022-09-11T00:20:38;20.10;70.70
37658;DHT22;23500;53.268;8.308;2022-09-11T00:23:04;20.10;70.00
37658;DHT22;23500;53.268;8.308;2022-09-11T00:25:35;20.10;69.80
37658;DHT22;23500;53.268;8.308;2022-09-11T00:28:02;20.00;69.60
37658;DHT22;23500;53.268;8.308;2022-09-11T00:30:28;20.00;69.30
37658;DHT22;23500;53.268;8.308;2022-09-11T00:32:54;20.00;69.00
37658;DHT22;23500;53.268;8.308;2022-09-11T00:35:20;20.00;69.00
37658;DHT22;23500;53.268;8.308;2022-09-11T00:37:46;20.00;68.90
37658;DHT22;23500;53.268;8.308;2022-09-11T00:40:14;20.00;68.90
37658;DHT22;23500;53.268;8.308;2022-09-11T00:42:40;20.00;68.70
37658;DHT22;23500;53.268;8.308;2022-09-11T00:45:07;20.00;69.10
37658;DHT22;23500;53.268;8.308;2022-09-11T00:47:34;20.00;69.70
37658;DHT22;23500;53.268;8.308;2022-09-11T00:50:13;20.00;69.40
37658;DHT22;23500;53.268;8.308;2022-09-11T00:52:50;19.90;68.90
37658;DHT22;23500;53.268;8.308;2022-09-11T00:55:20;19.90;69.10
37658;DHT22;23500;53.268;8.308;2022-09-11T00:57:51;19.90;69.10
37658;DHT22;23500;53.268;8.308;2022-09-11T01:00:18;19.90;69.40
37658;DHT22;23500;53.268;8.308;2022-09-11T01:02:47;19.90;69.40
37658;DHT22;23500;53.268;8.308;2022-09-11T01:05:14;19.90;69.50
37658;DHT22;23500;53.268;8.308;2022-09-11T01:07:41;19.90;69.50
37658;DHT22;23500;53.268;8.308;2022-09-11T01:10:09;19.90;69.10
37658;DHT22;23500;53.268;8.308;2022-09-11T01:12:56;19.80;69.20
37658;DHT22;23500;53.268;8.308;2022-09-11T01:15:45;19.80;68.80
37658;DHT22;23500;53.268;8.308;2022-09-11T01:18:24;19.80;68.80
37658;DHT22;23500;53.268;8.308;2022-09-11T01:24:24;19.80;69.30
37658;DHT22;23500;53.268;8.308;2022-09-11T01:26:51;19.80;68.90
37658;DHT22;23500;53.268;8.308;2022-09-11T01:29:30;19.80;69.60
37658;DHT22;23500;53.268;8.308;2022-09-11T01:35:19;19.80;69.50
37658;DHT22;23500;53.268;8.308;2022-09-11T01:37:58;19.70;69.00
37658;DHT22;23500;53.268;8.308;2022-09-11T01:40:27;19.70;69.30
37658;DHT22;23500;53.268;8.308;2022-09-11T01:43:01;19.70;69.70
37658;DHT22;23500;53.268;8.308;2022-09-11T01:45:31;19.70;69.60
37658;DHT22;23500;53.268;8.308;2022-09-11T01:47:59;19.70;69.40
37658;DHT22;23500;53.268;8.308;2022-09-11T01:50:26;19.70;69.50
37658;DHT22;23500;53.268;8.308;2022-09-11T01:52:57;19.70;69.60
37658;DHT22;23500;53.268;8.308;2022-09-11T01:55:42;19.70;69.60
37658;DHT22;23500;53.268;8.308;2022-09-11T01:58:14;19.70;69.10
37658;DHT22;23500;53.268;8.308;2022-09-11T02:00:44;19.70;69.50
37658;DHT22;23500;53.268;8.308;2022-09-11T02:03:29;19.70;69.60
37658;DHT22;23500;53.268;8.308;2022-09-11T02:06:01;19.70;69.00
37658;DHT22;23500;53.268;8.308;2022-09-11T02:08:45;19.70;69.40
37658;DHT22;23500;53.268;8.308;2022-09-11T02:11:14;19.60;69.20
37658;DHT22;23500;53.268;8.308;2022-09-11T02:13:57;19.60;68.90
37658;DHT22;23500;53.268;8.308;2022-09-11T02:16:48;19.60;68.50
37658;DHT22;23500;53.268;8.308;2022-09-11T02:19:19;19.60;68.70
37658;DHT22;23500;53.268;8.308;2022-09-11T02:21:48;19.60;69.20
37658;DHT22;23500;53.268;8.308;2022-09-11T02:24:16;19.60;69.40
37658;DHT22;23500;53.268;8.308;2022-09-11T02:26:46;19.50;69.40
37658;DHT22;23500;53.268;8.308;2022-09-11T02:29:13;19.60;69.60
37658;DHT22;23500;53.268;8.308;2022-09-11T02:31:40;19.50;69.50
37658;DHT22;23500;53.268;8.308;2022-09-11T02:34:07;19.50;69.50
37658;DHT22;23500;53.268;8.308;2022-09-11T02:42:26;19.50;69.30
37658;DHT22;23500;53.268;8.308;2022-09-11T02:45:07;19.50;69.30
37658;DHT22;23500;53.268;8.308;2022-09-11T02:51:06;19.50;69.40
37658;DHT22;23500;53.268;8.308;2022-09-11T02:56:14;19.50;69.90
37658;DHT22;23500;53.268;8.308;2022-09-11T02:59:12;19.50;70.20
37658;DHT22;23500;53.268;8.308;2022-09-11T03:01:49;19.50;69.60
37658;DHT22;23500;53.268;8.308;2022-09-11T03:04:16;19.50;70.20
37658;DHT22;23500;53.268;8.308;2022-09-11T03:06:43;19.50;69.80
37658;DHT22;23500;53.268;8.308;2022-09-11T03:09:10;19.50;69.90
37658;DHT22;23500;53.268;8.308;2022-09-11T03:11:37;19.50;69.90
37658;DHT22;23500;53.268;8.308;2022-09-11T03:14:03;19.50;69.70
37658;DHT22;23500;53.268;8.308;2022-09-11T03:16:28;19.40;69.50
37658;DHT22;23500;53.268;8.308;2022-09-11T03:18:54;19.50;69.90
37658;DHT22;23500;53.268;8.308;2022-09-11T03:21:20;19.40;69.60
37658;DHT22;23500;53.268;8.308;2022-09-11T03:23:45;19.40;69.60
37658;DHT22;23500;53.268;8.308;2022-09-11T03:26:11;19.40;69.80
37658;DHT22;23500;53.268;8.308;2022-09-11T03:28:37;19.40;69.80
37658;DHT22;23500;53.268;8.308;2022-09-11T03:31:04;19.40;69.70
37658;DHT22;23500;53.268;8.308;2022-09-11T03:33:32;19.40;69.70
37658;DHT22;23500;53.268;8.308;2022-09-11T03:35:57;19.40;70.50
37658;DHT22;23500;53.268;8.308;2022-09-11T03:38:24;19.40;69.80
37658;DHT22;23500;53.268;8.308;2022-09-11T03:40:49;19.40;69.90
37658;DHT22;23500;53.268;8.308;2022-09-11T03:43:15;19.40;70.00
37658;DHT22;23500;53.268;8.308;2022-09-11T03:45:41;19.40;69.90
37658;DHT22;23500;53.268;8.308;2022-09-11T03:48:07;19.40;69.60
37658;DHT22;23500;53.268;8.308;2022-09-11T03:50:33;19.30;69.70
37658;DHT22;23500;53.268;8.308;2022-09-11T03:52:59;19.40;69.80
37658;DHT22;23500;53.268;8.308;2022-09-11T03:55:25;19.30;69.90
37658;DHT22;23500;53.268;8.308;2022-09-11T03:57:51;19.40;69.80
37658;DHT22;23500;53.268;8.308;2022-09-11T04:00:16;19.40;70.00
37658;DHT22;23500;53.268;8.308;2022-09-11T04:02:42;19.30;70.00
37658;DHT22;23500;53.268;8.308;2022-09-11T04:05:08;19.30;70.20
37658;DHT22;23500;53.268;8.308;2022-09-11T04:07:35;19.30;70.00
37658;DHT22;23500;53.268;8.308;2022-09-11T04:10:00;19.30;70.20
37658;DHT22;23500;53.268;8.308;2022-09-11T04:12:26;19.30;70.30
37658;DHT22;23500;53.268;8.308;2022-09-11T04:14:52;19.30;70.40
37658;DHT22;23500;53.268;8.308;2022-09-11T04:17:17;19.30;70.60
37658;DHT22;23500;53.268;8.308;2022-09-11T04:19:43;19.30;70.80
37658;DHT22;23500;53.268;8.308;2022-09-11T04:22:09;19.30;70.90
37658;DHT22;23500;53.268;8.308;2022-09-11T04:24:34;19.30;71.10
37658;DHT22;23500;53.268;8.308;2022-09-11T04:27:00;19.30;70.80
37658;DHT22;23500;53.268;8.308;2022-09-11T04:29:26;19.30;71.20
37658;DHT22;23500;53.268;8.308;2022-09-11T04:31:53;19.30;71.40
37658;DHT22;23500;53.268;8.308;2022-09-11T04:34:19;19.30;71.40
37658;DHT22;23500;53.268;8.308;2022-09-11T04:36:45;19.40;71.50
37658;DHT22;23500;53.268;8.308;2022-09-11T04:39:11;19.30;71.50
37658;DHT22;23500;53.268;8.308;2022-09-11T04:41:36;19.30;71.40
37658;DHT22;23500;53.268;8.308;2022-09-11T04:44:02;19.30;71.60
37658;DHT22;23500;53.268;8.308;2022-09-11T04:46:28;19.30;71.50
37658;DHT22;23500;53.268;8.308;2022-09-11T04:48:55;19.30;71.50
37658;DHT22;23500;53.268;8.308;2022-09-11T04:53:53;19.30;71.70
37658;DHT22;23500;53.268;8.308;2022-09-11T04:56:30;19.30;72.00
37658;DHT22;23500;53.268;8.308;2022-09-11T04:58:58;19.30;71.90
37658;DHT22;23500;53.268;8.308;2022-09-11T05:01:26;19.30;72.00
37658;DHT22;23500;53.268;8.308;2022-09-11T05:03:52;19.30;72.00
37658;DHT22;23500;53.268;8.308;2022-09-11T05:06:18;19.30;71.90
37658;DHT22;23500;53.268;8.308;2022-09-11T05:08:46;19.30;72.00
37658;DHT22;23500;53.268;8.308;2022-09-11T05:11:14;19.30;72.00
37658;DHT22;23500;53.268;8.308;2022-09-11T05:13:40;19.30;72.10
37658;DHT22;23500;53.268;8.308;2022-09-11T05:16:11;19.40;72.10
37658;DHT22;23500;53.268;8.308;2022-09-11T05:18:39;19.40;72.10
37658;DHT22;23500;53.268;8.308;2022-09-11T05:21:08;19.40;72.20
37658;DHT22;23500;53.268;8.308;2022-09-11T05:23:34;19.40;72.20
37658;DHT22;23500;53.268;8.308;2022-09-11T05:26:02;19.40;72.20
37658;DHT22;23500;53.268;8.308;2022-09-11T05:28:29;19.40;72.30
37658;DHT22;23500;53.268;8.308;2022-09-11T05:30:56;19.40;72.30
37658;DHT22;23500;53.268;8.308;2022-09-11T05:33:23;19.40;72.60
37658;DHT22;23500;53.268;8.308;2022-09-11T05:35:50;19.40;72.60
37658;DHT22;23500;53.268;8.308;2022-09-11T05:38:17;19.40;72.60
37658;DHT22;23500;53.268;8.308;2022-09-11T05:40:45;19.40;72.60
37658;DHT22;23500;53.268;8.308;2022-09-11T05:43:12;19.40;72.60
37658;DHT22;23500;53.268;8.308;2022-09-11T05:45:40;19.40;73.10
37658;DHT22;23500;53.268;8.308;2022-09-11T05:48:06;19.40;72.40
37658;DHT22;23500;53.268;8.308;2022-09-11T05:50:32;19.40;72.60
37658;DHT22;23500;53.268;8.308;2022-09-11T05:52:59;19.40;72.50
37658;DHT22;23500;53.268;8.308;2022-09-11T05:55:24;19.40;72.50
37658;DHT22;23500;53.268;8.308;2022-09-11T05:57:53;19.40;72.60
37658;DHT22;23500;53.268;8.308;2022-09-11T06:00:20;19.50;72.80
37658;DHT22;23500;53.268;8.308;2022-09-11T06:02:46;19.50;72.70
37658;DHT22;23500;53.268;8.308;2022-09-11T06:05:14;19.50;72.80
37658;DHT22;23500;53.268;8.308;2022-09-11T06:07:40;19.50;73.00
37658;DHT22;23500;53.268;8.308;2022-09-11T06:10:07;19.50;73.20
37658;DHT22;23500;53.268;8.308;2022-09-11T06:12:32;19.50;73.40
37658;DHT22;23500;53.268;8.308;2022-09-11T06:14:59;19.50;73.60
37658;DHT22;23500;53.268;8.308;2022-09-11T06:17:25;19.50;73.60
37658;DHT22;23500;53.268;8.308;2022-09-11T06:19:50;19.50;73.80
37658;DHT22;23500;53.268;8.308;2022-09-11T06:22:16;19.50;73.80
37658;DHT22;23500;53.268;8.308;2022-09-11T06:24:42;19.50;74.00
37658;DHT22;23500;53.268;8.308;2022-09-11T06:27:08;19.60;74.20
37658;DHT22;23500;53.268;8.308;2022-09-11T06:29:33;19.60;74.20
37658;DHT22;23500;53.268;8.308;2022-09-11T06:31:59;19.60;74.10
37658;DHT22;23500;53.268;8.308;2022-09-11T06:34:25;19.60;74.20
37658;DHT22;23500;53.268;8.308;2022-09-11T06:36:51;19.60;74.20
37658;DHT22;23500;53.268;8.308;2022-09-11T06:39:17;19.60;74.20
37658;DHT22;23500;53.268;8.308;2022-09-11T06:41:44;19.60;74.30
37658;DHT22;23500;53.268;8.308;2022-09-11T06:44:11;19.60;74.20
37658;DHT22;23500;53.268;8.308;2022-09-11T06:46:37;19.70;74.30
37658;DHT22;23500;53.268;8.308;2022-09-11T06:49:03;19.70;74.10
37658;DHT22;23500;53.268;8.308;2022-09-11T06:51:28;19.70;74.30
37658;DHT22;23500;53.268;8.308;2022-09-11T06:53:55;19.80;74.30
37658;DHT22;23500;53.268;8.308;2022-09-11T06:56:27;19.70;74.20
37658;DHT22;23500;53.268;8.308;2022-09-11T06:58:53;19.80;74.10
37658;DHT22;23500;53.268;8.308;2022-09-11T07:01:20;19.80;74.00
37658;DHT22;23500;53.268;8.308;2022-09-11T07:03:48;19.80;74.00
37658;DHT22;23500;53.268;8.308;2022-09-11T07:06:16;19.80;74.30
37658;DHT22;23500;53.268;8.308;2022-09-11T07:08:41;19.80;74.90
37658;DHT22;23500;53.268;8.308;2022-09-11T07:11:08;19.80;75.30
37658;DHT22;23500;53.268;8.308;2022-09-11T07:13:36;19.80;75.60
37658;DHT22;23500;53.268;8.308;2022-09-11T07:16:04;19.80;75.70
37658;DHT22;23500;53.268;8.308;2022-09-11T07:18:34;19.80;76.00
37658;DHT22;23500;53.268;8.308;2022-09-11T07:21:10;19.80;75.80
37658;DHT22;23500;53.268;8.308;2022-09-11T07:23:37;19.90;76.00
37658;DHT22;23500;53.268;8.308;2022-09-11T07:26:05;19.90;76.10
37658;DHT22;23500;53.268;8.308;2022-09-11T07:28:32;19.90;75.90
37658;DHT22;23500;53.268;8.308;2022-09-11T07:31:08;19.90;76.00
37658;DHT22;23500;53.268;8.308;2022-09-11T07:33:36;19.90;76.00
37658;DHT22;23500;53.268;8.308;2022-09-11T07:36:12;19.90;76.10
37658;DHT22;23500;53.268;8.308;2022-09-11T07:38:42;19.90;76.10
37658;DHT22;23500;53.268;8.308;2022-09-11T07:41:09;20.00;76.20
37658;DHT22;23500;53.268;8.308;2022-09-11T07:43:35;20.00;76.10
37658;DHT22;23500;53.268;8.308;2022-09-11T07:46:02;20.00;76.20
37658;DHT22;23500;53.268;8.308;2022-09-11T07:48:29;20.00;76.00
37658;DHT22;23500;53.268;8.308;2022-09-11T07:51:05;20.00;76.30
37658;DHT22;23500;53.268;8.308;2022-09-11T07:53:39;20.00;76.10
37658;DHT22;23500;53.268;8.308;2022-09-11T07:56:08;20.10;76.20
37658;DHT22;23500;53.268;8.308;2022-09-11T07:58:35;20.10;75.90
37658;DHT22;23500;53.268;8.308;2022-09-11T08:01:03;20.10;76.10
37658;DHT22;23500;53.268;8.308;2022-09-11T08:03:33;20.10;76.10
37658;DHT22;23500;53.268;8.308;2022-09-11T08:06:08;20.10;75.90
37658;DHT22;23500;53.268;8.308;2022-09-11T08:08:34;20.10;75.60
37658;DHT22;23500;53.268;8.308;2022-09-11T08:11:02;20.20;75.60
37658;DHT22;23500;53.268;8.308;2022-09-11T08:13:29;20.20;75.60
37658;DHT22;23500;53.268;8.308;2022-09-11T08:15:54;20.20;75.70
37658;DHT22;23500;53.268;8.308;2022-09-11T08:18:21;20.20;75.10
37658;DHT22;23500;53.268;8.308;2022-09-11T08:20:47;20.30;75.10
37658;DHT22;23500;53.268;8.308;2022-09-11T08:23:13;20.30;74.70
37658;DHT22;23500;53.268;8.308;2022-09-11T08:25:40;20.30;74.50
37658;DHT22;23500;53.268;8.308;2022-09-11T08:28:06;20.40;74.70
37658;DHT22;23500;53.268;8.308;2022-09-11T08:30:33;20.40;75.20
37658;DHT22;23500;53.268;8.308;2022-09-11T08:33:06;20.40;75.60
37658;DHT22;23500;53.268;8.308;2022-09-11T08:35:33;20.30;74.80
37658;DHT22;23500;53.268;8.308;2022-09-11T08:38:00;20.40;75.10
37658;DHT22;23500;53.268;8.308;2022-09-11T08:40:28;20.30;75.20
37658;DHT22;23500;53.268;8.308;2022-09-11T08:42:56;20.40;75.30
37658;DHT22;23500;53.268;8.308;2022-09-11T08:45:29;20.40;75.30
37658;DHT22;23500;53.268;8.308;2022-09-11T08:47:56;20.40;75.50
37658;DHT22;23500;53.268;8.308;2022-09-11T08:52:58;20.50;75.10
37658;DHT22;23500;53.268;8.308;2022-09-11T08:55:35;20.50;74.90
37658;DHT22;23500;53.268;8.308;2022-09-11T08:58:07;20.50;74.70
37658;DHT22;23500;53.268;8.308;2022-09-11T09:17:21;20.70;74.50
37658;DHT22;23500;53.268;8.308;2022-09-11T09:22:32;20.70;74.40
37658;DHT22;23500;53.268;8.308;2022-09-11T09:25:08;20.70;74.30
37658;DHT22;23500;53.268;8.308;2022-09-11T09:27:39;20.70;74.30
37658;DHT22;23500;53.268;8.308;2022-09-11T09:30:19;20.70;74.10
37658;DHT22;23500;53.268;8.308;2022-09-11T09:32:50;20.70;74.00
37658;DHT22;23500;53.268;8.308;2022-09-11T09:35:29;20.70;73.80
37658;DHT22;23500;53.268;8.308;2022-09-11T09:37:57;20.70;73.70
37658;DHT22;23500;53.268;8.308;2022-09-11T09:40:24;20.70;73.30
37658;DHT22;23500;53.268;8.308;2022-09-11T09:47:56;20.80;72.60
37658;DHT22;23500;53.268;8.308;2022-09-11T09:50:32;20.70;72.00
37658;DHT22;23500;53.268;8.308;2022-09-11T09:53:28;20.80;72.60
37658;DHT22;23500;53.268;8.308;2022-09-11T09:55:59;20.80;71.90
37658;DHT22;23500;53.268;8.308;2022-09-11T09:58:31;20.80;71.40
37658;DHT22;23500;53.268;8.308;2022-09-11T10:00:57;20.80;71.90
37658;DHT22;23500;53.268;8.308;2022-09-11T10:03:24;20.80;72.10
37658;DHT22;23500;53.268;8.308;2022-09-11T10:05:52;20.80;71.80
37658;DHT22;23500;53.268;8.308;2022-09-11T10:08:34;20.80;71.90
37658;DHT22;23500;53.268;8.308;2022-09-11T10:11:06;20.80;72.30
37658;DHT22;23500;53.268;8.308;2022-09-11T10:13:43;20.80;71.60
37658;DHT22;23500;53.268;8.308;2022-09-11T10:16:26;20.80;71.10
37658;DHT22;23500;53.268;8.308;2022-09-11T10:18:54;20.90;70.90
37658;DHT22;23500;53.268;8.308;2022-09-11T10:21:28;20.80;71.30
37658;DHT22;23500;53.268;8.308;2022-09-11T10:23:58;20.80;71.10
37658;DHT22;23500;53.268;8.308;2022-09-11T10:26:46;20.80;70.70
37658;DHT22;23500;53.268;8.308;2022-09-11T10:29:21;20.90;69.70
37658;DHT22;23500;53.268;8.308;2022-09-11T10:31:53;20.90;72.00
37658;DHT22;23500;53.268;8.308;2022-09-11T10:34:24;20.90;72.20
37658;DHT22;23500;53.268;8.308;2022-09-11T10:36:54;20.90;72.80
37658;DHT22;23500;53.268;8.308;2022-09-11T10:39:22;20.90;71.80
37658;DHT22;23500;53.268;8.308;2022-09-11T10:41:51;20.90;72.20
37658;DHT22;23500;53.268;8.308;2022-09-11T10:44:19;20.90;71.50
37658;DHT22;23500;53.268;8.308;2022-09-11T10:49:45;20.90;72.00
37658;DHT22;23500;53.268;8.308;2022-09-11T10:57:33;21.00;72.70
37658;DHT22;23500;53.268;8.308;2022-09-11T11:02:47;21.00;72.20
37658;DHT22;23500;53.268;8.308;2022-09-11T11:05:21;21.00;71.70
37658;DHT22;23500;53.268;8.308;2022-09-11T11:08:08;21.00;71.70
37658;DHT22;23500;53.268;8.308;2022-09-11T11:24:20;21.00;72.20
37658;DHT22;23500;53.268;8.308;2022-09-11T11:26:59;21.00;72.10
37658;DHT22;23500;53.268;8.308;2022-09-11T11:32:51;21.10;72.50
37658;DHT22;23500;53.268;8.308;2022-09-11T11:41:11;21.10;72.40
37658;DHT22;23500;53.268;8.308;2022-09-11T11:43:41;21.10;72.30
37658;DHT22;23500;53.268;8.308;2022-09-11T11:46:20;21.10;72.60
37658;DHT22;23500;53.268;8.308;2022-09-11T11:51:18;21.10;72.60
37658;DHT22;23500;53.268;8.308;2022-09-11T11:58:50;21.10;72.20
37658;DHT22;23500;53.268;8.308;2022-09-11T12:04:09;21.20;72.50
37658;DHT22;23500;53.268;8.308;2022-09-11T12:06:36;21.20;72.70
37658;DHT22;23500;53.268;8.308;2022-09-11T12:09:03;21.20;72.70
37658;DHT22;23500;53.268;8.308;2022-09-11T12:11:31;21.20;71.70
37658;DHT22;23500;53.268;8.308;2022-09-11T12:13:57;21.20;72.20
37658;DHT22;23500;53.268;8.308;2022-09-11T12:16:30;21.20;72.80
37658;DHT22;23500;53.268;8.308;2022-09-11T12:19:16;21.20;72.60
37658;DHT22;23500;53.268;8.308;2022-09-11T12:24:49;21.20;72.20
37658;DHT22;23500;53.268;8.308;2022-09-11T12:33:00;21.20;72.60
37658;DHT22;23500;53.268;8.308;2022-09-11T12:35:45;21.20;72.80
37658;DHT22;23500;53.268;8.308;2022-09-11T12:38:24;21.20;69.80
37658;DHT22;23500;53.268;8.308;2022-09-11T12:40:58;21.20;70.50
37658;DHT22;23500;53.268;8.308;2022-09-11T12:43:49;21.20;72.30
37658;DHT22;23500;53.268;8.308;2022-09-11T12:51:36;21.20;73.00
37658;DHT22;23500;53.268;8.308;2022-09-11T12:54:25;21.20;72.80
37658;DHT22;23500;53.268;8.308;2022-09-11T12:56:57;21.20;73.70
37658;DHT22;23500;53.268;8.308;2022-09-11T12:59:32;21.20;72.30
37658;DHT22;23500;53.268;8.308;2022-09-11T13:01:59;21.30;72.90
37658;DHT22;23500;53.268;8.308;2022-09-11T13:04:27;21.30;72.90
37658;DHT22;23500;53.268;8.308;2022-09-11T13:07:01;21.30;72.70
37658;DHT22;23500;53.268;8.308;2022-09-11T13:09:33;21.30;72.60
37658;DHT22;23500;53.268;8.308;2022-09-11T13:14:47;21.30;72.50
37658;DHT22;23500;53.268;8.308;2022-09-11T13:17:45;21.30;72.50
37658;DHT22;23500;53.268;8.308;2022-09-11T13:20:19;21.30;72.50
37658;DHT22;23500;53.268;8.308;2022-09-11T13:22:45;21.20;72.00
37658;DHT22;23500;53.268;8.308;2022-09-11T13:25:17;21.20;72.60
37658;DHT22;23500;53.268;8.308;2022-09-11T13:27:49;21.30;72.10
37658;DHT22;23500;53.268;8.308;2022-09-11T13:30:18;21.30;72.50
37658;DHT22;23500;53.268;8.308;2022-09-11T13:32:48;21.30;72.50
37658;DHT22;23500;53.268;8.308;2022-09-11T13:35:26;21.20;72.40
37658;DHT22;23500;53.268;8.308;2022-09-11T13:38:33;21.30;72.40
37658;DHT22;23500;53.268;8.308;2022-09-11T13:40:58;21.20;72.10
37658;DHT22;23500;53.268;8.308;2022-09-11T13:43:30;21.20;72.20
37658;DHT22;23500;53.268;8.308;2022-09-11T13:48:49;21.30;72.20
37658;DHT22;23500;53.268;8.308;2022-09-11T13:51:19;21.20;71.90
37658;DHT22;23500;53.268;8.308;2022-09-11T13:54:05;21.30;72.20
37658;DHT22;23500;53.268;8.308;2022-09-11T13:57:15;21.30;72.10
37658;DHT22;23500;53.268;8.308;2022-09-11T13:59:55;21.20;71.50
37658;DHT22;23500;53.268;8.308;2022-09-11T14:02:38;21.20;72.00
37658;DHT22;23500;53.268;8.308;2022-09-11T14:05:26;21.20;71.20
37658;DHT22;23500;53.268;8.308;2022-09-11T14:08:17;21.20;70.90
37658;DHT22;23500;53.268;8.308;2022-09-11T14:10:47;21.20;71.50
37658;DHT22;23500;53.268;8.308;2022-09-11T14:13:34;21.20;71.60
37658;DHT22;23500;53.268;8.308;2022-09-11T14:16:07;21.20;69.30
37658;DHT22;23500;53.268;8.308;2022-09-11T14:18:56;21.20;70.30
37658;DHT22;23500;53.268;8.308;2022-09-11T14:21:34;21.20;70.60
37658;DHT22;23500;53.268;8.308;2022-09-11T14:24:01;21.20;71.30
37658;DHT22;23500;53.268;8.308;2022-09-11T14:31:48;21.20;70.60
37658;DHT22;23500;53.268;8.308;2022-09-11T14:34:21;21.30;71.30
37658;DHT22;23500;53.268;8.308;2022-09-11T14:37:10;21.20;71.10
37658;DHT22;23500;53.268;8.308;2022-09-11T14:42:15;21.30;70.30
37658;DHT22;23500;53.268;8.308;2022-09-11T14:44:42;21.20;68.00
37658;DHT22;23500;53.268;8.308;2022-09-11T14:47:16;21.30;70.70
37658;DHT22;23500;53.268;8.308;2022-09-11T14:49:46;21.30;70.40
37658;DHT22;23500;53.268;8.308;2022-09-11T14:52:14;21.30;70.70
37658;DHT22;23500;53.268;8.308;2022-09-11T14:54:40;21.30;70.80
37658;DHT22;23500;53.268;8.308;2022-09-11T14:57:14;21.30;70.30
37658;DHT22;23500;53.268;8.308;2022-09-11T14:59:41;21.30;70.90
37658;DHT22;23500;53.268;8.308;2022-09-11T15:02:11;21.30;70.70
37658;DHT22;23500;53.268;8.308;2022-09-11T15:04:38;21.30;70.30
37658;DHT22;23500;53.268;8.308;2022-09-11T15:07:04;21.30;69.80
37658;DHT22;23500;53.268;8.308;2022-09-11T15:09:32;21.30;70.00
37658;DHT22;23500;53.268;8.308;2022-09-11T15:11:57;21.30;69.40
37658;DHT22;23500;53.268;8.308;2022-09-11T15:14:23;21.30;70.30
37658;DHT22;23500;53.268;8.308;2022-09-11T15:16:50;21.30;69.60
37658;DHT22;23500;53.268;8.308;2022-09-11T15:19:15;21.30;70.60
37658;DHT22;23500;53.268;8.308;2022-09-11T15:21:41;21.30;70.60
37658;DHT22;23500;53.268;8.308;2022-09-11T15:24:07;21.30;70.00
37658;DHT22;23500;53.268;8.308;2022-09-11T15:26:34;21.30;70.80
37658;DHT22;23500;53.268;8.308;2022-09-11T15:29:02;21.30;70.50
37658;DHT22;23500;53.268;8.308;2022-09-11T15:31:28;21.30;69.80
37658;DHT22;23500;53.268;8.308;2022-09-11T15:33:55;21.30;70.00
37658;DHT22;23500;53.268;8.308;2022-09-11T15:36:21;21.30;70.00
37658;DHT22;23500;53.268;8.308;2022-09-11T15:38:54;21.30;70.20
37658;DHT22;23500;53.268;8.308;2022-09-11T15:41:20;21.30;70.40
37658;DHT22;23500;53.268;8.308;2022-09-11T15:43:47;21.30;70.50
37658;DHT22;23500;53.268;8.308;2022-09-11T15:46:16;21.30;70.40
37658;DHT22;23500;53.268;8.308;2022-09-11T15:48:42;21.30;69.40
37658;DHT22;23500;53.268;8.308;2022-09-11T15:51:12;21.30;70.30
37658;DHT22;23500;53.268;8.308;2022-09-11T15:53:38;21.30;69.00
37658;DHT22;23500;53.268;8.308;2022-09-11T15:56:12;21.30;67.60
37658;DHT22;23500;53.268;8.308;2022-09-11T15:58:40;21.30;69.40
37658;DHT22;23500;53.268;8.308;2022-09-11T16:01:14;21.30;68.30
37658;DHT22;23500;53.268;8.308;2022-09-11T16:03:42;21.30;68.40
37658;DHT22;23500;53.268;8.308;2022-09-11T16:06:08;21.30;68.70
37658;DHT22;23500;53.268;8.308;2022-09-11T16:08:34;21.30;70.00
37658;DHT22;23500;53.268;8.308;2022-09-11T16:11:03;21.30;67.70
37658;DHT22;23500;53.268;8.308;2022-09-11T16:13:29;21.30;67.80
37658;DHT22;23500;53.268;8.308;2022-09-11T16:16:03;21.30;67.50
37658;DHT22;23500;53.268;8.308;2022-09-11T16:18:30;21.30;67.20
37658;DHT22;23500;53.268;8.308;2022-09-11T16:20:58;21.30;67.20
37658;DHT22;23500;53.268;8.308;2022-09-11T16:23:25;21.30;68.60
37658;DHT22;23500;53.268;8.308;2022-09-11T16:25:52;21.30;67.90
37658;DHT22;23500;53.268;8.308;2022-09-11T16:28:18;21.30;67.20
37658;DHT22;23500;53.268;8.308;2022-09-11T16:30:44;21.30;66.80
37658;DHT22;23500;53.268;8.308;2022-09-11T16:33:10;21.30;67.00
37658;DHT22;23500;53.268;8.308;2022-09-11T16:35:37;21.30;66.60
37658;DHT22;23500;53.268;8.308;2022-09-11T16:38:04;21.30;66.90
37658;DHT22;23500;53.268;8.308;2022-09-11T16:40:32;21.30;66.80
37658;DHT22;23500;53.268;8.308;2022-09-11T16:43:03;21.30;67.10
37658;DHT22;23500;53.268;8.308;2022-09-11T16:45:32;21.30;67.90
37658;DHT22;23500;53.268;8.308;2022-09-11T16:47:58;21.30;67.50
37658;DHT22;23500;53.268;8.308;2022-09-11T16:50:24;21.30;67.50
37658;DHT22;23500;53.268;8.308;2022-09-11T16:52:50;21.30;67.70
37658;DHT22;23500;53.268;8.308;2022-09-11T16:55:16;21.30;67.40
37658;DHT22;23500;53.268;8.308;2022-09-11T16:57:44;21.30;67.20
37658;DHT22;23500;53.268;8.308;2022-09-11T17:00:12;21.30;67.40
37658;DHT22;23500;53.268;8.308;2022-09-11T17:02:38;21.30;67.60
37658;DHT22;23500;53.268;8.308;2022-09-11T17:05:05;21.30;67.40
37658;DHT22;23500;53.268;8.308;2022-09-11T17:07:33;21.30;67.50
37658;DHT22;23500;53.268;8.308;2022-09-11T17:09:59;21.30;67.30
37658;DHT22;23500;53.268;8.308;2022-09-11T17:12:24;21.30;67.90
37658;DHT22;23500;53.268;8.308;2022-09-11T17:14:50;21.30;67.60
37658;DHT22;23500;53.268;8.308;2022-09-11T17:17:16;21.30;67.70
37658;DHT22;23500;53.268;8.308;2022-09-11T17:19:41;21.30;68.10
37658;DHT22;23500;53.268;8.308;2022-09-11T17:22:07;21.30;67.90
37658;DHT22;23500;53.268;8.308;2022-09-11T17:24:33;21.30;68.10
37658;DHT22;23500;53.268;8.308;2022-09-11T17:26:59;21.30;67.70
37658;DHT22;23500;53.268;8.308;2022-09-11T17:29:26;21.30;67.80
37658;DHT22;23500;53.268;8.308;2022-09-11T17:31:52;21.30;68.00
37658;DHT22;23500;53.268;8.308;2022-09-11T17:34:18;21.30;67.80
37658;DHT22;23500;53.268;8.308;2022-09-11T17:36:44;21.30;68.00
37658;DHT22;23500;53.268;8.308;2022-09-11T17:39:10;21.30;68.10
37658;DHT22;23500;53.268;8.308;2022-09-11T17:41:35;21.30;68.10
37658;DHT22;23500;53.268;8.308;2022-09-11T17:44:02;21.20;68.20
37658;DHT22;23500;53.268;8.308;2022-09-11T17:46:27;21.20;68.20